Time;durP1;ratioP1;P1;durP2;ratioP2;P2;SDS_P1;SDS_P2;PMS_P1;PMS_P2;Temp;Humidity;BMP_temperature;BMP_pressure;BME280_temperature;BME280_humidity;BME280_pressure;Samples;Min_cycle;Max_cycle;Signal;HPM_P1;HPM_P2
2023/01/11 00:01:15;;;;;;;0.98;0.98;;;;;;;-13.99;54.35;101306.00;4937245;29;20043;-84
2023/01/11 00:03:42;;;;;;;1.40;1.30;;;;;;;-13.92;54.36;101285.09;4954490;29;20043;-85
2023/01/11 00:06:10;;;;;;;1.20;1.20;;;;;;;-13.91;54.07;101295.47;4954448;29;20098;-85
2023/01/11 00:08:37;;;;;;;1.40;1.30;;;;;;;-13.89;53.90;101300.63;4937257;29;20134;-83
2023/01/11 00:11:11;;;;;;;1.30;1.20;;;;;;;-13.91;54.42;101298.06;4955439;29;21303;-85
2023/01/11 00:13:39;;;;;;;1.10;1.10;;;;;;;-13.91;54.07;101289.41;4954293;29;20750;-86
2023/01/11 00:16:07;;;;;;;1.20;1.20;;;;;;;-13.92;54.35;101282.50;4953404;28;20047;-84
2023/01/11 00:18:34;;;;;;;1.52;1.42;;;;;;;-13.89;54.24;101285.91;4954137;29;20649;-84
2023/01/11 00:21:05;;;;;;;1.60;1.50;;;;;;;-13.93;54.24;101298.97;4954134;29;20051;-84
2023/01/11 00:23:34;;;;;;;1.60;1.50;;;;;;;-13.92;54.36;101282.50;4946669;29;20078;-85
2023/01/11 00:26:07;;;;;;;1.23;1.20;;;;;;;-13.93;54.26;101270.41;4954872;29;20138;-85
2023/01/11 00:28:34;;;;;;;1.20;1.20;;;;;;;-13.90;53.98;101285.91;4955288;29;20061;-85
2023/01/11 00:31:02;;;;;;;1.50;1.40;;;;;;;-13.94;54.07;101289.50;4954672;29;20137;-86
2023/01/11 00:33:29;;;;;;;1.50;1.40;;;;;;;-13.97;54.63;101296.44;4937120;29;20138;-85
2023/01/11 00:35:57;;;;;;;1.50;1.40;;;;;;;-13.95;54.61;101301.59;4953897;29;20069;-85
2023/01/11 00:49:28;;;;;;;1.20;1.20;;;;;;;-13.85;54.03;101299.66;4936324;29;20498;-85
2023/01/11 00:51:55;;;;;;;1.50;1.40;;;;;;;-13.86;53.83;101296.22;4953694;29;20057;-84
2023/01/11 00:54:22;;;;;;;1.38;1.27;;;;;;;-13.87;53.12;101275.47;4934703;29;20138;-84
2023/01/11 00:56:49;;;;;;;1.38;1.27;;;;;;;-13.86;53.72;101297.97;4934461;29;20063;-85
2023/01/11 00:59:16;;;;;;;1.38;1.27;;;;;;;-13.86;54.27;101303.16;4933960;29;20533;-86
2023/01/11 01:01:43;;;;;;;1.45;1.35;;;;;;;-13.83;53.72;101295.28;4933591;29;20138;-85
2023/01/11 01:04:10;;;;;;;1.40;1.30;;;;;;;-13.85;54.48;101290.13;4935348;29;20051;-84
2023/01/11 01:06:37;;;;;;;1.15;1.15;;;;;;;-13.79;54.29;101308.19;4953708;29;20123;-84
2023/01/11 01:09:05;;;;;;;1.50;1.40;;;;;;;-13.77;54.15;101297.78;4953221;29;20051;-84
2023/01/11 01:11:32;;;;;;;1.50;1.40;;;;;;;-13.75;54.33;101257.03;4936119;29;20051;-86
2023/01/11 01:16:46;;;;;;;1.40;1.30;;;;;;;-13.76;54.11;101278.69;4953197;29;20081;-84
2023/01/11 01:19:13;;;;;;;1.40;1.30;;;;;;;-13.78;53.41;101265.72;4952919;29;20051;-84
2023/01/11 01:21:40;;;;;;;1.45;1.35;;;;;;;-13.77;53.50;101279.59;4953196;29;20055;-84
2023/01/11 01:24:07;;;;;;;1.30;1.23;;;;;;;-13.81;53.43;101296.13;4952849;29;20063;-84
2023/01/11 01:26:34;;;;;;;1.20;1.20;;;;;;;-13.79;53.94;101289.16;4952452;28;20491;-84
2023/01/11 01:29:03;;;;;;;1.60;1.50;;;;;;;-13.79;54.11;101309.94;4952443;29;20122;-86
2023/01/11 01:31:33;;;;;;;1.45;1.35;;;;;;;-13.81;54.44;101290.94;4953115;29;20526;-85
2023/01/11 01:34:01;;;;;;;1.50;1.40;;;;;;;-13.81;54.13;101289.19;4952759;29;20047;-85
2023/01/11 01:36:27;;;;;;;1.42;1.33;;;;;;;-13.81;54.24;101288.31;4936036;29;20059;-84
2023/01/11 01:38:54;;;;;;;1.48;1.38;;;;;;;-13.84;54.20;101309.16;4920044;29;20059;-83
2023/01/11 01:41:21;;;;;;;1.17;1.17;;;;;;;-13.86;54.24;101284.97;4953278;28;20395;-85
2023/01/11 01:44:00;;;;;;;1.70;1.60;;;;;;;-13.82;54.35;101281.41;4947799;29;20586;-85
2023/01/11 01:46:32;;;;;;;1.30;1.20;;;;;;;-13.84;54.22;101271.06;4937095;29;20051;-85
2023/01/11 01:49:03;;;;;;;1.40;1.30;;;;;;;-13.81;53.80;101286.56;4953995;29;20190;-85
2023/01/11 01:51:40;;;;;;;1.42;1.33;;;;;;;-13.83;54.11;101283.16;4922154;29;20049;-83
2023/01/11 01:54:16;;;;;;;1.40;1.30;;;;;;;-13.84;54.47;101291.84;4971111;29;20071;-85
2023/01/11 01:56:50;;;;;;;1.48;1.38;;;;;;;-13.82;54.35;101260.63;4936097;29;20066;-84
2023/01/11 01:59:19;;;;;;;1.25;1.20;;;;;;;-13.83;54.18;101279.72;4957954;29;20062;-85
2023/01/11 02:01:47;;;;;;;1.35;1.25;;;;;;;-13.81;54.26;101296.13;4910788;29;20239;-84
2023/01/11 02:04:27;;;;;;;1.10;1.10;;;;;;;-13.79;54.15;101295.19;4935658;29;20146;-86
2023/01/11 02:07:03;;;;;;;1.40;1.30;;;;;;;-13.81;54.02;101288.31;4956863;29;20099;-86
2023/01/11 02:09:47;;;;;;;1.38;1.27;;;;;;;-13.86;54.24;101252.09;4955642;29;20058;-84
2023/01/11 02:12:17;;;;;;;1.40;1.30;;;;;;;-13.80;54.14;101274.44;4947080;29;20043;-83
2023/01/11 02:14:46;;;;;;;1.17;1.17;;;;;;;-13.81;54.53;101280.53;4973240;29;20051;-84
2023/01/11 02:17:13;;;;;;;1.33;1.25;;;;;;;-13.84;54.08;101278.03;4957013;29;20419;-84
2023/01/11 02:20:01;;;;;;;1.35;1.25;;;;;;;-13.81;53.89;101281.38;4956570;29;20067;-84
2023/01/11 02:22:35;;;;;;;1.20;1.15;;;;;;;-13.82;54.42;101276.22;4964487;28;20079;-85
2023/01/11 02:25:27;;;;;;;1.13;1.13;;;;;;;-13.86;54.32;101272.84;4973156;29;20070;-84
2023/01/11 02:27:54;;;;;;;1.40;1.30;;;;;;;-13.85;54.57;101281.47;4976570;28;20055;-84
2023/01/11 02:30:21;;;;;;;1.50;1.40;;;;;;;-13.84;54.58;101275.41;4969199;28;20054;-84
2023/01/11 02:33:02;;;;;;;1.10;1.10;;;;;;;-13.89;54.33;101259.94;4974562;28;20043;-84
2023/01/11 02:35:47;;;;;;;1.10;1.10;;;;;;;-13.85;54.54;101258.13;4955160;28;20540;-84
2023/01/11 02:38:20;;;;;;;1.13;1.13;;;;;;;-13.85;54.06;101260.72;4955260;28;20468;-85
2023/01/11 02:40:50;;;;;;;1.55;1.45;;;;;;;-13.86;54.41;101266.81;4977124;28;20390;-85
2023/01/11 02:46:53;;;;;;;1.40;1.30;;;;;;;-13.82;54.34;101253.72;4957132;29;20145;-84
2023/01/11 02:49:43;;;;;;;1.10;1.10;;;;;;;-13.84;54.21;101247.72;4932759;29;20075;-84
2023/01/11 02:52:13;;;;;;;1.15;1.15;;;;;;;-13.85;54.32;101232.16;4957065;29;20062;-84
2023/01/11 02:54:44;;;;;;;1.40;1.30;;;;;;;-13.88;54.09;101240.03;4939555;29;20054;-85
2023/01/11 02:57:12;;;;;;;1.50;1.40;;;;;;;-13.85;53.99;101245.97;4925287;28;20051;-86
2023/01/11 02:59:40;;;;;;;1.50;1.40;;;;;;;-13.89;54.29;101235.72;4967498;28;20043;-86
2023/01/11 03:02:08;;;;;;;1.10;1.10;;;;;;;-13.86;54.40;101240.84;4947679;28;20046;-86
2023/01/11 03:04:36;;;;;;;1.50;1.40;;;;;;;-13.85;55.03;101247.72;4976320;28;20120;-85
2023/01/11 03:07:34;;;;;;;1.20;1.20;;;;;;;-13.82;54.64;101222.56;4975265;28;20148;-83
2023/01/11 03:10:32;;;;;;;1.55;1.45;;;;;;;-13.82;54.53;101232.97;4958025;28;20050;-86
2023/01/11 03:13:36;;;;;;;1.38;1.27;;;;;;;-13.81;54.60;101228.63;4873914;29;20049;-86
2023/01/11 03:16:32;;;;;;;1.70;1.60;;;;;;;-13.80;54.08;101230.31;4878614;29;20420;-86
2023/01/11 03:19:34;;;;;;;1.50;1.40;;;;;;;-13.80;53.70;101212.13;4877027;29;20190;-86
2023/01/11 03:22:09;;;;;;;1.40;1.30;;;;;;;-13.83;54.24;101227.78;4867350;29;20045;-88
2023/01/11 03:24:57;;;;;;;1.25;1.23;;;;;;;-13.78;54.40;101223.34;4885772;29;20049;-86
2023/01/11 03:27:41;;;;;;;1.40;1.30;;;;;;;-13.80;54.11;101194.84;4899784;29;20077;-86
2023/01/11 03:30:26;;;;;;;1.58;1.48;;;;;;;-13.82;54.28;101206.13;4877115;29;20026;-87
2023/01/11 03:33:03;;;;;;;1.38;1.27;;;;;;;-13.84;54.24;101221.75;4892743;29;20032;-86
2023/01/11 03:35:37;;;;;;;1.20;1.20;;;;;;;-13.83;54.06;101209.63;4897267;29;20116;-87
2023/01/11 03:38:30;;;;;;;1.25;1.20;;;;;;;-13.83;53.95;101227.78;4882890;29;20112;-87
2023/01/11 03:41:04;;;;;;;1.55;1.45;;;;;;;-13.84;54.19;101210.53;4854933;29;20077;-88
2023/01/11 03:43:34;;;;;;;1.33;1.25;;;;;;;-13.85;54.07;101233.00;4874928;29;20063;-88
2023/01/11 03:46:23;;;;;;;1.50;1.40;;;;;;;-13.86;54.07;101220.06;4860635;29;20046;-87
2023/01/11 03:49:12;;;;;;;1.40;1.30;;;;;;;-13.90;53.85;101216.69;4880937;29;20281;-85
2023/01/11 03:51:44;;;;;;;1.65;1.55;;;;;;;-13.88;53.77;101195.88;4946285;28;20047;-86
2023/01/11 03:54:14;;;;;;;1.17;1.17;;;;;;;-13.93;54.00;101219.34;4961133;28;20047;-84
2023/01/11 03:56:52;;;;;;;1.42;1.33;;;;;;;-13.91;54.06;101238.34;4941619;29;20047;-86
2023/01/11 03:59:19;;;;;;;1.45;1.35;;;;;;;-13.93;53.77;101216.75;4947829;29;20054;-87
2023/01/11 04:01:46;;;;;;;1.10;1.10;;;;;;;-13.91;53.77;101220.19;4973936;29;20047;-86
2023/01/11 04:04:14;;;;;;;1.20;1.20;;;;;;;-13.90;53.56;101221.03;4968266;29;20051;-87
2023/01/11 04:06:41;;;;;;;1.20;1.20;;;;;;;-13.92;53.73;101213.28;4962275;29;20070;-87
2023/01/11 04:09:08;;;;;;;1.25;1.20;;;;;;;-13.88;54.05;101208.88;4942159;29;20540;-88
2023/01/11 04:11:35;;;;;;;1.58;1.48;;;;;;;-13.85;54.00;101214.84;4926174;29;20540;-87
2023/01/11 04:14:02;;;;;;;1.50;1.40;;;;;;;-13.90;53.75;101208.03;4956272;29;20146;-88
2023/01/11 04:16:30;;;;;;;1.45;1.35;;;;;;;-13.93;54.11;101211.56;4955619;29;20043;-89
2023/01/11 04:18:57;;;;;;;1.42;1.33;;;;;;;-13.92;54.07;101191.66;4943859;29;20063;-89
2023/01/11 04:21:24;;;;;;;1.40;1.30;;;;;;;-13.89;53.72;101209.78;4944512;29;20119;-87
2023/01/11 04:23:51;;;;;;;1.50;1.40;;;;;;;-13.93;53.87;101203.78;4938999;29;20043;-87
2023/01/11 04:26:18;;;;;;;1.48;1.38;;;;;;;-13.90;54.01;101195.91;4938930;29;20051;-87
2023/01/11 04:28:45;;;;;;;1.42;1.33;;;;;;;-13.90;54.02;101218.44;4957029;29;20061;-88
2023/01/11 04:31:12;;;;;;;1.33;1.23;;;;;;;-13.92;53.72;101221.09;4942570;29;20058;-88
2023/01/11 04:33:39;;;;;;;1.52;1.42;;;;;;;-13.95;53.77;101207.28;4956466;29;20206;-88
2023/01/11 04:36:08;;;;;;;1.40;1.30;;;;;;;-13.95;54.06;101218.53;4973060;29;20074;-88
2023/01/11 04:38:36;;;;;;;1.30;1.23;;;;;;;-13.98;54.06;101182.28;4938541;29;20126;-88
2023/01/11 04:43:56;;;;;;;1.60;1.50;;;;;;;-14.01;54.35;101196.16;4927615;29;20051;-90
2023/01/11 04:46:23;;;;;;;1.55;1.45;;;;;;;-14.02;54.73;101186.69;4892261;29;20061;-90
2023/01/11 04:48:52;;;;;;;1.33;1.23;;;;;;;-14.01;54.82;101183.19;4942340;29;20114;-86
2023/01/11 04:51:19;;;;;;;1.45;1.35;;;;;;;-14.02;54.80;101194.47;4938575;29;20051;-89
2023/01/11 04:53:47;;;;;;;1.40;1.30;;;;;;;-14.02;54.93;101201.41;4955277;29;20434;-89
2023/01/11 04:56:15;;;;;;;1.48;1.38;;;;;;;-14.03;54.88;101189.31;4953214;29;20058;-89
2023/01/11 04:58:43;;;;;;;1.45;1.35;;;;;;;-14.05;54.98;101184.19;4921837;29;20055;-89
2023/01/11 05:01:11;;;;;;;1.60;1.50;;;;;;;-14.09;55.20;101185.13;4937257;28;20067;-87
2023/01/11 05:03:39;;;;;;;1.60;1.50;;;;;;;-14.13;55.65;101188.66;4934351;29;20043;-88
2023/01/11 05:06:08;;;;;;;1.50;1.40;;;;;;;-14.17;55.58;101183.59;4951461;29;20134;-88
2023/01/11 05:08:35;;;;;;;1.50;1.40;;;;;;;-14.15;56.17;101180.09;4937791;29;20137;-89
2023/01/11 05:11:08;;;;;;;1.50;1.40;;;;;;;-14.16;56.01;101188.72;4938858;29;20047;-86
2023/01/11 05:13:41;;;;;;;1.13;1.13;;;;;;;-14.15;55.98;101182.69;4937807;29;20050;-88
2023/01/11 05:16:20;;;;;;;1.55;1.45;;;;;;;-14.14;56.10;101176.59;4919614;29;20509;-88
2023/01/11 05:18:49;;;;;;;1.40;1.30;;;;;;;-14.16;56.16;101178.34;4922167;29;20055;-90
2023/01/11 05:21:19;;;;;;;1.20;1.20;;;;;;;-14.16;56.62;101174.91;4935966;29;20110;-88
2023/01/11 05:24:14;;;;;;;1.50;1.40;;;;;;;-14.15;56.90;101154.13;4921818;29;20499;-90
2023/01/11 05:26:42;;;;;;;;;;;;;;;-14.12;56.51;101177.41;4954872;29;20122;-91
2023/01/11 05:29:15;;;;;;;1.25;1.20;;;;;;;-14.12;56.60;101141.09;4955558;29;19926;-90
2023/01/11 05:31:42;;;;;;;1.63;1.52;;;;;;;-14.12;56.71;101154.06;4955375;29;20047;-88
2023/01/11 05:34:11;;;;;;;1.45;1.35;;;;;;;-14.11;56.84;101147.97;4954130;29;20168;-90
2023/01/11 05:36:39;;;;;;;1.38;1.27;;;;;;;-14.12;56.66;101203.34;4948291;29;20059;-89
2023/01/11 05:39:06;;;;;;;1.50;1.40;;;;;;;-14.15;57.15;101182.69;4966161;29;20059;-88
2023/01/11 05:41:34;;;;;;;1.40;1.30;;;;;;;-14.14;57.09;101176.59;4953388;28;20525;-89
2023/01/11 05:46:48;;;;;;;1.40;1.30;;;;;;;-14.07;57.45;101191.13;4937005;29;20558;-89
2023/01/11 05:49:15;;;;;;;1.60;1.50;;;;;;;-14.01;57.58;101188.38;4953616;29;20043;-90
2023/01/11 05:51:43;;;;;;;1.45;1.35;;;;;;;-13.98;57.58;101185.72;4952527;29;20430;-89
2023/01/11 05:54:12;;;;;;;1.42;1.33;;;;;;;-13.90;57.41;101202.84;4932643;29;20051;-86
2023/01/11 05:56:41;;;;;;;1.50;1.40;;;;;;;-13.90;57.49;101161.31;4941974;29;20117;-88
2023/01/11 05:59:08;;;;;;;1.27;1.20;;;;;;;-13.83;57.53;101171.53;4953045;29;20059;-87
2023/01/11 06:01:37;;;;;;;1.48;1.38;;;;;;;-13.78;57.63;101168.81;4576629;29;10000444;-88
2023/01/11 06:04:04;;;;;;;1.25;1.20;;;;;;;-13.76;57.78;101188.66;4933131;29;20055;-86
2023/01/11 06:06:37;;;;;;;1.45;1.35;;;;;;;-13.69;57.74;101181.59;4947457;29;20506;-87
2023/01/11 06:09:06;;;;;;;1.50;1.40;;;;;;;-13.64;57.57;101164.16;4956740;29;20538;-87
2023/01/11 06:11:34;;;;;;;1.10;1.10;;;;;;;-13.65;57.79;101154.63;4970807;29;20243;-88
2023/01/11 06:14:06;;;;;;;1.50;1.40;;;;;;;-13.69;57.72;101167.75;4953437;28;20057;-90
2023/01/11 06:16:33;;;;;;;1.48;1.38;;;;;;;-13.71;57.99;101160.00;4930679;29;20047;-88
2023/01/11 06:19:01;;;;;;;1.60;1.50;;;;;;;-13.64;58.24;101158.97;4943060;29;20058;-84
2023/01/11 06:21:27;;;;;;;1.10;1.10;;;;;;;-13.63;58.03;101170.19;4951356;28;20051;-87
2023/01/11 06:23:55;;;;;;;1.33;1.25;;;;;;;-13.57;57.97;101176.09;4944939;29;20114;-88
2023/01/11 06:26:22;;;;;;;1.35;1.27;;;;;;;-13.48;57.98;101145.59;4942501;28;20043;-87
2023/01/11 06:28:50;;;;;;;1.63;1.52;;;;;;;-13.49;57.63;101168.13;4937970;29;20059;-90
2023/01/11 06:31:18;;;;;;;1.38;1.27;;;;;;;-13.44;57.69;101150.66;4938152;29;20509;-87
2023/01/11 06:33:45;;;;;;;1.70;1.60;;;;;;;-13.41;57.51;101167.91;4911789;29;20063;-86
2023/01/11 06:36:14;;;;;;;1.60;1.50;;;;;;;-13.37;57.96;101154.78;4952317;29;20063;-87
2023/01/11 06:38:45;;;;;;;1.52;1.42;;;;;;;-13.30;58.16;101152.88;4939698;29;20074;-87
2023/01/11 06:41:12;;;;;;;1.48;1.38;;;;;;;-13.24;58.02;101152.72;4952053;28;20059;-89
2023/01/11 06:43:40;;;;;;;1.33;1.25;;;;;;;-13.21;58.09;101151.78;4959260;29;20082;-89
2023/01/11 06:46:15;;;;;;;1.60;1.50;;;;;;;-13.08;58.11;101154.91;4916012;29;20126;-89
2023/01/11 06:48:43;;;;;;;1.40;1.30;;;;;;;-13.06;57.79;101159.16;4947119;28;20043;-86
2023/01/11 06:51:11;;;;;;;1.45;1.35;;;;;;;-13.07;57.81;101153.97;4935411;29;20044;-89
2023/01/11 06:53:39;;;;;;;1.63;1.52;;;;;;;-13.17;57.31;101128.22;4922903;29;20159;-86
2023/01/11 06:56:08;;;;;;;1.40;1.30;;;;;;;-13.06;57.67;101155.69;4940009;29;20063;-87
2023/01/11 06:58:36;;;;;;;1.50;1.40;;;;;;;-13.04;57.52;101138.28;4945770;29;20058;-84
2023/01/11 07:01:03;;;;;;;1.70;1.60;;;;;;;-13.00;57.55;101155.53;4939291;29;20053;-85
2023/01/11 07:03:31;;;;;;;1.38;1.27;;;;;;;-12.99;57.92;101158.06;4946200;29;20063;-84
2023/01/11 07:05:58;;;;;;;1.30;1.23;;;;;;;-12.91;57.83;101150.06;4939651;29;20150;-86
2023/01/11 07:08:27;;;;;;;1.50;1.40;;;;;;;-12.85;57.95;101157.69;4916867;29;20079;-85
2023/01/11 07:10:55;;;;;;;1.70;1.60;;;;;;;-12.80;57.73;101136.78;4934786;29;20106;-85
2023/01/11 07:13:22;;;;;;;1.42;1.33;;;;;;;-12.79;57.88;101164.47;4948980;29;20126;-86
2023/01/11 07:15:52;;;;;;;1.33;1.23;;;;;;;-12.77;57.94;101147.91;4948454;29;20414;-83
2023/01/11 07:18:21;;;;;;;1.65;1.55;;;;;;;-12.73;58.03;101127.91;4953563;29;20600;-86
2023/01/11 07:20:50;;;;;;;1.50;1.40;;;;;;;-12.70;57.86;101113.03;4947996;28;20117;-85
2023/01/11 07:23:18;;;;;;;1.65;1.55;;;;;;;-12.63;57.86;101149.25;4920102;29;20099;-83
2023/01/11 07:25:48;;;;;;;1.60;1.50;;;;;;;-12.69;57.79;101137.28;4944095;28;20051;-85
2023/01/11 07:28:16;;;;;;;1.73;1.63;;;;;;;-12.55;58.01;101149.91;4960930;28;20086;-86
2023/01/11 07:30:43;;;;;;;1.50;1.40;;;;;;;-12.56;57.85;101156.00;4967842;28;20073;-85
2023/01/11 07:33:49;;;;;;;1.50;1.40;;;;;;;-12.53;57.80;101125.56;4949362;29;20046;-86
2023/01/11 07:36:16;;;;;;;1.25;1.23;;;;;;;-12.53;57.95;101154.19;4952376;29;20051;-86
2023/01/11 07:38:46;;;;;;;1.58;1.48;;;;;;;-12.54;58.20;101128.19;4961880;29;20049;-85
2023/01/11 07:43:58;;;;;;;1.38;1.27;;;;;;;-12.46;58.43;101157.44;4967340;29;20041;-86
2023/01/11 07:46:25;;;;;;;1.45;1.35;;;;;;;-12.42;58.44;101142.59;4971194;29;20110;-84
2023/01/11 07:48:54;;;;;;;1.63;1.52;;;;;;;-12.44;58.59;101116.59;4954529;29;20070;-85
2023/01/11 07:51:23;;;;;;;1.60;1.50;;;;;;;-12.46;58.33;101155.66;4961143;29;20059;-85
2023/01/11 07:53:50;;;;;;;1.60;1.50;;;;;;;-12.50;58.47;101145.44;4930015;29;20043;-84
2023/01/11 07:56:19;;;;;;;1.80;1.70;;;;;;;-12.48;58.45;101160.09;4951684;29;20138;-88
2023/01/11 07:58:50;;;;;;;1.52;1.42;;;;;;;-12.51;58.70;101157.56;4909689;29;20054;-85
2023/01/11 08:01:17;;;;;;;1.38;1.27;;;;;;;-12.50;58.41;101135.03;4916905;29;20055;-85
2023/01/11 08:03:44;;;;;;;1.42;1.33;;;;;;;-12.46;58.65;101150.47;4944466;29;20100;-88
2023/01/11 08:06:13;;;;;;;1.40;1.30;;;;;;;-12.43;58.71;101141.72;4930951;29;20138;-85
2023/01/11 08:08:41;;;;;;;1.40;1.30;;;;;;;-12.38;58.25;101142.47;4911135;29;20060;-85
2023/01/11 08:16:40;;;;;;;1.73;1.63;;;;;;;-12.31;58.45;101127.50;4926334;29;20051;-85
2023/01/11 08:19:07;;;;;;;1.45;1.35;;;;;;;-12.28;58.13;101133.47;4916929;29;20058;-85
2023/01/11 08:21:35;;;;;;;1.77;1.67;;;;;;;-12.24;57.97;101145.47;4942084;29;20051;-85
2023/01/11 08:24:07;;;;;;;1.40;1.30;;;;;;;-12.24;57.94;101137.66;4941239;29;20055;-85
2023/01/11 08:26:34;;;;;;;1.63;1.52;;;;;;;-12.20;58.19;101143.66;4950844;29;20073;-84
2023/01/11 08:29:01;;;;;;;1.60;1.50;;;;;;;-12.18;57.94;101120.16;4911149;29;20051;-86
2023/01/11 08:31:29;;;;;;;1.70;1.60;;;;;;;-12.13;58.19;101113.06;4936175;29;20047;-85
2023/01/11 08:33:56;;;;;;;1.58;1.48;;;;;;;-12.11;57.88;101106.91;4919750;29;20079;-85
2023/01/11 08:36:26;;;;;;;1.70;1.60;;;;;;;-12.09;58.12;101106.84;4940362;29;20075;-86
2023/01/11 08:38:54;;;;;;;1.50;1.40;;;;;;;-12.07;58.13;101113.72;4941251;29;20142;-85
2023/01/11 08:41:23;;;;;;;1.50;1.40;;;;;;;-12.04;57.85;101098.00;4932005;29;20058;-85
2023/01/11 08:43:51;;;;;;;1.55;1.45;;;;;;;-12.02;57.13;101137.00;4943255;29;20105;-84
2023/01/11 08:46:18;;;;;;;1.58;1.48;;;;;;;-12.00;57.10;101122.16;4924847;29;20490;-85
2023/01/11 08:48:45;;;;;;;1.70;1.60;;;;;;;-11.89;57.07;101107.06;4940858;29;20058;-83
2023/01/11 08:51:13;;;;;;;1.60;1.50;;;;;;;-11.86;55.87;101099.09;4917415;29;20521;-83
2023/01/11 08:53:41;;;;;;;1.50;1.40;;;;;;;-11.85;56.11;101095.63;4939637;29;20399;-83
2023/01/11 08:56:08;;;;;;;1.73;1.63;;;;;;;-11.70;55.93;101096.00;4929401;29;20404;-86
2023/01/11 08:58:35;;;;;;;1.48;1.38;;;;;;;-11.61;55.87;101090.47;4943378;29;20052;-87
2023/01/11 09:01:06;;;;;;;1.60;1.50;;;;;;;-11.63;55.70;101092.28;4949866;29;20047;-84
2023/01/11 09:03:34;;;;;;;1.67;1.58;;;;;;;-11.55;55.77;101108.50;4929255;29;20454;-86
2023/01/11 09:06:01;;;;;;;1.52;1.42;;;;;;;-11.50;55.33;101113.56;4953855;29;20102;-85
2023/01/11 09:08:33;;;;;;;1.33;1.25;;;;;;;-11.49;55.25;101107.44;4955114;29;20099;-84
2023/01/11 09:11:01;;;;;;;1.58;1.48;;;;;;;-11.46;55.56;101099.53;4938897;29;20170;-84
2023/01/11 09:13:28;;;;;;;1.63;1.52;;;;;;;-11.47;55.12;101103.88;4944813;29;20048;-86
2023/01/11 09:15:58;;;;;;;1.60;1.50;;;;;;;-11.58;55.41;101049.53;4922621;29;20099;-85
2023/01/11 09:18:25;;;;;;;1.50;1.40;;;;;;;-11.61;55.51;101087.88;4943763;29;20102;-86
2023/01/11 09:20:53;;;;;;;1.40;1.30;;;;;;;-11.57;55.32;101089.44;4941747;29;20067;-86
2023/01/11 09:23:23;;;;;;;1.50;1.40;;;;;;;-11.58;55.61;101091.22;4926278;29;20103;-84
2023/01/11 09:25:50;;;;;;;1.45;1.35;;;;;;;-11.62;55.51;101068.78;4936184;29;20142;-84
2023/01/11 09:28:17;;;;;;;1.58;1.48;;;;;;;-11.62;55.84;101073.13;4929273;29;20077;-85
2023/01/11 09:30:44;;;;;;;1.50;1.40;;;;;;;-11.71;55.80;101073.47;4946172;29;20048;-85
2023/01/11 09:33:13;;;;;;;1.63;1.52;;;;;;;-11.76;56.05;101068.41;4945779;29;20058;-85
2023/01/11 09:35:41;;;;;;;1.70;1.60;;;;;;;-11.66;56.56;101069.78;4944929;29;20055;-85
2023/01/11 09:38:08;;;;;;;1.48;1.38;;;;;;;-11.61;56.13;101067.03;4943815;29;20043;-80
2023/01/11 09:40:44;;;;;;;1.67;1.58;;;;;;;-11.60;56.33;101037.44;4960551;28;20058;-81
2023/01/11 09:43:13;;;;;;;1.50;1.40;;;;;;;-11.60;56.42;101053.09;4949648;29;20047;-81
2023/01/11 09:45:45;;;;;;;1.52;1.42;;;;;;;-11.52;56.64;101058.88;4940957;29;20130;-81
2023/01/11 09:48:22;;;;;;;1.60;1.50;;;;;;;-11.43;56.73;101055.09;4921513;29;20066;-81
2023/01/11 09:50:50;;;;;;;1.63;1.52;;;;;;;-11.50;56.72;101020.59;4932007;29;20761;-81
2023/01/11 09:53:37;;;;;;;1.63;1.52;;;;;;;-11.52;56.24;101014.56;4951317;29;20055;-82
2023/01/11 09:56:15;;;;;;;1.30;1.20;;;;;;;-11.70;56.59;101020.44;4906854;29;20403;-83
2023/01/11 09:59:24;;;;;;;1.42;1.33;;;;;;;-11.66;56.84;101020.28;4930793;29;20149;-82
2023/01/11 10:02:04;;;;;;;1.70;1.60;;;;;;;-11.48;57.01;101028.34;4929377;29;20055;-82
2023/01/11 10:04:40;;;;;;;1.50;1.40;;;;;;;-11.46;56.98;101043.03;4897983;29;20059;-84
2023/01/11 10:07:29;;;;;;;1.48;1.38;;;;;;;-11.38;57.17;101027.13;4899969;29;20460;-82
2023/01/11 10:10:20;;;;;;;1.77;1.67;;;;;;;-11.32;57.32;101023.44;4905763;29;20052;-84
2023/01/11 10:13:52;;;;;;;1.65;1.55;;;;;;;-11.27;57.35;101017.13;4875540;29;20080;-84
2023/01/11 10:17:00;;;;;;;1.63;1.52;;;;;;;-11.36;57.50;101005.31;4876415;29;20467;-82
2023/01/11 10:20:10;;;;;;;1.63;1.52;;;;;;;-11.26;57.29;100995.41;4910570;29;20066;-85
2023/01/11 10:22:46;;;;;;;1.42;1.33;;;;;;;-11.36;57.70;100991.44;4901163;29;20053;-82
2023/01/11 10:25:53;;;;;;;1.50;1.40;;;;;;;-11.22;57.54;100986.53;4900341;29;20506;-83
2023/01/11 10:28:31;;;;;;;1.50;1.40;;;;;;;-11.22;57.91;100983.94;4849871;29;20057;-84
2023/01/11 10:42:27;;;;;;;1.48;1.38;;;;;;;-11.16;58.49;100991.53;4924936;29;20492;-84
2023/01/11 10:45:03;;;;;;;1.50;1.40;;;;;;;-11.28;58.15;100994.59;4915741;29;20056;-83
2023/01/11 10:47:38;;;;;;;1.55;1.45;;;;;;;-11.29;58.43;100956.41;4914195;29;20051;-84
2023/01/11 10:50:17;;;;;;;1.70;1.60;;;;;;;-11.31;58.52;100981.69;4899670;29;20459;-84
2023/01/11 10:53:01;;;;;;;1.70;1.60;;;;;;;-11.40;58.58;100968.97;4925517;29;20621;-86
2023/01/11 10:55:42;;;;;;;1.50;1.40;;;;;;;-11.35;58.52;100930.56;4928346;29;20479;-84
2023/01/11 10:58:29;;;;;;;1.60;1.50;;;;;;;-11.28;58.35;100965.91;4932295;29;20059;-82
2023/01/11 11:01:37;;;;;;;1.58;1.48;;;;;;;-11.24;59.02;100941.44;4917292;29;20922;-83
2023/01/11 11:04:22;;;;;;;1.50;1.40;;;;;;;-11.24;59.04;100956.22;4913076;29;20056;-84
2023/01/11 11:06:53;;;;;;;1.60;1.50;;;;;;;-11.22;59.29;100959.63;4923558;29;20065;-83
2023/01/11 11:09:34;;;;;;;1.45;1.35;;;;;;;-11.32;59.15;100946.09;4931160;29;20047;-83
2023/01/11 11:12:39;;;;;;;1.40;1.30;;;;;;;-11.22;59.31;100950.03;4927889;29;20120;-83
2023/01/11 11:15:27;;;;;;;1.70;1.60;;;;;;;-11.26;59.45;100958.91;4840174;29;20050;-84
2023/01/11 11:17:59;;;;;;;1.50;1.40;;;;;;;-11.25;59.27;100975.38;4839058;29;20122;-82
2023/01/11 11:20:31;;;;;;;1.35;1.25;;;;;;;-11.20;59.35;100983.88;4843335;29;20106;-82
2023/01/11 11:22:59;;;;;;;1.50;1.40;;;;;;;-11.21;59.42;100988.25;4856506;29;20563;-82
2023/01/11 11:25:36;;;;;;;1.52;1.42;;;;;;;-11.19;59.66;100936.03;4841723;29;20046;-83
2023/01/11 11:28:06;;;;;;;1.40;1.30;;;;;;;-11.19;59.49;100894.31;4856568;29;20065;-83
2023/01/11 11:30:41;;;;;;;1.60;1.50;;;;;;;-11.22;59.45;100923.13;4857815;29;20428;-82
2023/01/11 11:33:36;;;;;;;1.67;1.58;;;;;;;-11.28;59.91;100918.16;4857568;29;20493;-82
2023/01/11 11:36:11;;;;;;;1.40;1.30;;;;;;;-11.23;59.81;100911.00;4857483;29;20394;-83
2023/01/11 11:38:40;;;;;;;1.30;1.20;;;;;;;-11.26;59.85;100934.59;4855768;29;20054;-83
2023/01/11 11:41:10;;;;;;;1.50;1.40;;;;;;;-11.27;60.07;100904.19;4849353;29;20054;-83
2023/01/11 11:43:41;;;;;;;1.42;1.33;;;;;;;-11.27;60.37;100914.63;4857578;29;20057;-83
2023/01/11 11:46:15;;;;;;;1.38;1.27;;;;;;;-11.25;60.28;100910.22;4843781;29;20057;-84
2023/01/11 11:49:08;;;;;;;1.50;1.40;;;;;;;-11.21;60.47;100901.38;4885164;29;20051;-83
2023/01/11 11:51:35;;;;;;;1.30;1.20;;;;;;;-11.30;60.38;100886.09;4947682;29;20150;-83
2023/01/11 11:54:02;;;;;;;1.48;1.38;;;;;;;-11.17;60.25;100908.16;4938333;29;20134;-83
2023/01/11 11:56:32;;;;;;;1.40;1.30;;;;;;;-11.27;60.35;100912.88;4957411;29;20465;-84
2023/01/11 11:59:06;;;;;;;1.50;1.40;;;;;;;-11.36;60.25;100830.69;4921183;29;20491;-84
2023/01/11 12:01:45;;;;;;;1.45;1.35;;;;;;;-11.26;59.76;100904.16;4933382;29;20047;-83
2023/01/11 12:04:18;;;;;;;1.70;1.60;;;;;;;-11.35;60.15;100896.69;4941357;29;20051;-84
2023/01/11 12:07:02;;;;;;;1.50;1.40;;;;;;;-11.21;59.95;100901.38;4927204;29;20052;-84
2023/01/11 12:09:31;;;;;;;1.50;1.40;;;;;;;-11.28;59.53;100890.31;4925743;29;20062;-83
2023/01/11 12:11:59;;;;;;;1.40;1.30;;;;;;;-11.30;59.52;100897.34;4942174;29;20047;-84
2023/01/11 12:14:30;;;;;;;1.55;1.45;;;;;;;-11.24;59.40;100884.09;4943755;29;20047;-83
2023/01/11 12:17:00;;;;;;;1.35;1.25;;;;;;;-11.40;59.56;100864.72;4935441;29;20458;-84
2023/01/11 12:19:27;;;;;;;1.50;1.40;;;;;;;-11.29;59.88;100857.38;4923149;29;20063;-85
2023/01/11 12:22:11;;;;;;;1.52;1.42;;;;;;;-11.28;59.95;100873.84;4944880;29;20081;-83
2023/01/11 12:24:38;;;;;;;1.55;1.45;;;;;;;-11.27;59.89;100875.53;4934457;29;20099;-82